Fort Washakie, Wyoming
Current Conditions -  °F | °C
As of 9:53 AM on Thursday 23 Oct 2014 (Local Time) from KLND Reporting Station
Clear Clear  
Wind Chill: 44°   Ceiling: Unl
Heat Index: 47°   Visibility: 10mi
Dew Point: 24°   Wind: 6mph
Humidity: 41%   Direction: 340°NNW
Pressure: 30.09"   Gusts: NA
Location:  43.01°N, 108.88°W
Report Text: KLND 231553Z AUTO 34005KT 10SM CLR 08/M04 A3009 RMK AO2 SLP173 T00831044 TSNO
Loading
Personal Weather Stations






























Interactive Weather Map
Tropical Storm Tracking
New forecast layout! Learn more

10-Day Weather Forecast

Advertisements
Track Severe Weather on mobile